Time,TemperatureF,DewpointF,PressureIn,WindDirection,WindDirectionDegrees,WindSpeedMPH,WindSpeedGustMPH,Humidity,HourlyPrecipIn,Conditions,Clouds,dailyrainin,SoftwareType,DateUTC
2013-06-26 00:05:00,70.6,69.4,29.70,West,265,0.0,0.0,96,0.00,,,0.00,Wunderground v.1.15,2013-06-26 04:05:00,
2013-06-26 00:09:00,70.6,69.4,29.70,West,265,0.0,0.0,96,0.00,,,0.00,Wunderground v.1.15,2013-06-26 04:09:00,
2013-06-26 00:14:00,70.4,69.2,29.70,West,265,0.0,0.0,96,0.00,,,0.00,Wunderground v.1.15,2013-06-26 04:14:00,
2013-06-26 00:19:00,70.4,69.2,29.70,West,265,0.0,0.0,96,0.00,,,0.00,Wunderground v.1.15,2013-06-26 04:19:00,
2013-06-26 00:24:00,70.4,69.2,29.70,West,265,0.0,0.0,96,0.00,,,0.00,Wunderground v.1.15,2013-06-26 04:24:00,
2013-06-26 00:29:00,70.4,69.2,29.71,West,265,0.0,0.0,96,0.00,,,0.00,Wunderground v.1.15,2013-06-26 04:29:00,
2013-06-26 00:39:00,70.3,69.1,29.71,West,265,0.0,0.0,96,0.00,,,0.00,Wunderground v.1.15,2013-06-26 04:39:00,
2013-06-26 00:44:00,70.3,68.8,29.70,West,265,0.0,0.0,95,0.00,,,0.00,Wunderground v.1.15,2013-06-26 04:44:00,
2013-06-26 00:50:00,70.1,68.6,29.70,West,265,0.0,0.0,95,0.00,,,0.00,Wunderground v.1.15,2013-06-26 04:50:00,
2013-06-26 00:55:00,70.1,68.6,29.70,West,265,0.0,0.0,95,0.00,,,0.00,Wunderground v.1.15,2013-06-26 04:55:00,
2013-06-26 01:00:00,70.1,68.6,29.69,West,265,0.0,0.0,95,0.00,,,0.00,Wunderground v.1.15,2013-06-26 05:00:00,
2013-06-26 01:10:00,69.9,68.7,29.69,West,265,0.0,0.0,96,0.00,,,0.00,Wunderground v.1.15,2013-06-26 05:10:00,
2013-06-26 01:15:00,69.9,68.7,29.69,West,265,0.0,0.0,96,0.00,,,0.00,Wunderground v.1.15,2013-06-26 05:15:00,
2013-06-26 01:20:00,69.8,68.6,29.69,West,265,0.0,0.0,96,0.00,,,0.00,Wunderground v.1.15,2013-06-26 05:20:00,
2013-06-26 01:25:00,69.8,68.6,29.69,West,265,0.0,0.0,96,0.00,,,0.00,Wunderground v.1.15,2013-06-26 05:25:00,
2013-06-26 01:30:00,69.6,68.4,29.69,West,265,0.0,0.0,96,0.00,,,0.00,Wunderground v.1.15,2013-06-26 05:30:00,
2013-06-26 01:39:00,69.6,68.4,29.69,West,265,0.0,0.0,96,0.00,,,0.00,Wunderground v.1.15,2013-06-26 05:39:00,
2013-06-26 01:45:00,69.4,68.2,29.69,West,265,0.0,0.0,96,0.00,,,0.00,Wunderground v.1.15,2013-06-26 05:45:00,
2013-06-26 01:50:00,69.4,68.2,29.69,West,265,0.0,0.0,96,0.00,,,0.00,Wunderground v.1.15,2013-06-26 05:50:00,
2013-06-26 01:59:00,69.3,68.1,29.69,West,265,0.0,0.0,96,0.00,,,0.00,Wunderground v.1.15,2013-06-26 05:59:00,
2013-06-26 02:04:00,69.3,68.1,29.69,West,265,0.0,0.0,96,0.00,,,0.00,Wunderground v.1.15,2013-06-26 06:04:00,
2013-06-26 02:09:00,69.1,67.9,29.69,West,265,0.0,0.0,96,0.00,,,0.00,Wunderground v.1.15,2013-06-26 06:09:00,
2013-06-26 02:19:00,69.1,67.9,29.69,West,265,0.0,0.0,96,0.00,,,0.00,Wunderground v.1.15,2013-06-26 06:19:00,
2013-06-26 02:24:00,68.9,67.7,29.69,West,265,0.0,0.0,96,0.00,,,0.00,Wunderground v.1.15,2013-06-26 06:24:00,
2013-06-26 02:29:00,68.9,67.7,29.68,West,265,0.0,0.0,96,0.00,,,0.00,Wunderground v.1.15,2013-06-26 06:29:00,
2013-06-26 02:34:00,68.9,67.7,29.68,West,265,0.0,0.0,96,0.00,,,0.00,Wunderground v.1.15,2013-06-26 06:34:00,
2013-06-26 02:40:00,68.9,67.7,29.68,West,265,0.0,0.0,96,0.00,,,0.00,Wunderground v.1.15,2013-06-26 06:40:00,
2013-06-26 02:45:00,68.9,67.7,29.68,West,265,0.0,0.0,96,0.00,,,0.00,Wunderground v.1.15,2013-06-26 06:45:00,
2013-06-26 02:54:00,68.9,67.7,29.68,West,265,0.0,0.0,96,0.00,,,0.00,Wunderground v.1.15,2013-06-26 06:54:00,
2013-06-26 03:00:00,68.8,67.6,29.68,West,265,0.0,0.0,96,0.00,,,0.00,Wunderground v.1.15,2013-06-26 07:00:00,
2013-06-26 03:05:00,68.8,67.6,29.68,West,265,0.0,0.0,96,0.00,,,0.00,Wunderground v.1.15,2013-06-26 07:05:00,
2013-06-26 03:10:00,68.8,67.9,29.68,West,265,0.0,0.0,97,0.00,,,0.00,Wunderground v.1.15,2013-06-26 07:10:00,
2013-06-26 03:15:00,68.8,67.9,29.67,West,265,0.0,0.0,97,0.00,,,0.00,Wunderground v.1.15,2013-06-26 07:15:00,
2013-06-26 03:25:00,68.8,67.9,29.67,West,265,0.0,0.0,97,0.00,,,0.00,Wunderground v.1.15,2013-06-26 07:25:00,
2013-06-26 03:30:00,68.6,67.7,29.67,West,265,0.0,0.0,97,0.00,,,0.00,Wunderground v.1.15,2013-06-26 07:30:00,
2013-06-26 03:35:00,68.6,67.7,29.67,West,265,0.0,0.0,97,0.00,,,0.00,Wunderground v.1.15,2013-06-26 07:35:00,
2013-06-26 03:40:00,68.6,67.7,29.67,West,265,0.0,0.0,97,0.00,,,0.00,Wunderground v.1.15,2013-06-26 07:40:00,
2013-06-26 03:45:00,68.6,67.7,29.68,West,265,0.0,0.0,97,0.00,,,0.00,Wunderground v.1.15,2013-06-26 07:45:00,
2013-06-26 03:50:00,68.4,67.5,29.68,West,265,0.0,0.0,97,0.00,,,0.00,Wunderground v.1.15,2013-06-26 07:50:00,
2013-06-26 04:00:00,68.4,67.5,29.68,West,265,0.0,0.0,97,0.00,,,0.00,Wunderground v.1.15,2013-06-26 08:00:00,
2013-06-26 04:05:00,68.4,67.5,29.68,West,265,0.0,0.0,97,0.00,,,0.00,Wunderground v.1.15,2013-06-26 08:05:00,
2013-06-26 04:10:00,68.3,67.4,29.68,West,265,0.0,0.0,97,0.00,,,0.00,Wunderground v.1.15,2013-06-26 08:10:00,
2013-06-26 04:15:00,68.3,67.4,29.67,West,265,0.0,0.0,97,0.00,,,0.00,Wunderground v.1.15,2013-06-26 08:15:00,
2013-06-26 04:20:00,68.3,67.4,29.67,West,265,0.0,0.0,97,0.00,,,0.00,Wunderground v.1.15,2013-06-26 08:20:00,
2013-06-26 04:30:00,68.1,67.2,29.68,West,265,0.0,0.0,97,0.00,,,0.00,Wunderground v.1.15,2013-06-26 08:30:00,
2013-06-26 04:35:00,68.1,67.2,29.68,West,265,0.0,0.0,97,0.00,,,0.00,Wunderground v.1.15,2013-06-26 08:35:00,
2013-06-26 04:40:00,68.1,67.2,29.68,West,265,0.0,0.0,97,0.00,,,0.00,Wunderground v.1.15,2013-06-26 08:40:00,
2013-06-26 04:49:00,67.9,67.0,29.68,West,265,0.0,0.0,97,0.00,,,0.00,Wunderground v.1.15,2013-06-26 08:49:00,
2013-06-26 04:54:00,67.9,67.0,29.68,West,265,0.0,0.0,97,0.00,,,0.00,Wunderground v.1.15,2013-06-26 08:54:00,
2013-06-26 05:04:00,67.9,67.0,29.69,West,265,0.0,0.0,97,0.00,,,0.00,Wunderground v.1.15,2013-06-26 09:04:00,
2013-06-26 05:09:00,67.9,67.0,29.69,West,265,0.0,0.0,97,0.00,,,0.00,Wunderground v.1.15,2013-06-26 09:09:00,
2013-06-26 05:14:00,67.8,66.9,29.69,West,265,0.0,0.0,97,0.00,,,0.00,Wunderground v.1.15,2013-06-26 09:14:00,
2013-06-26 05:19:00,67.8,66.9,29.69,West,265,0.0,0.0,97,0.00,,,0.00,Wunderground v.1.15,2013-06-26 09:19:00,
2013-06-26 05:25:00,67.6,66.7,29.69,West,265,0.0,0.0,97,0.00,,,0.00,Wunderground v.1.15,2013-06-26 09:25:00,
2013-06-26 05:30:00,67.6,66.7,29.69,West,265,0.0,0.0,97,0.00,,,0.00,Wunderground v.1.15,2013-06-26 09:30:00,
2013-06-26 05:40:00,67.4,66.5,29.69,West,265,0.0,0.0,97,0.00,,,0.00,Wunderground v.1.15,2013-06-26 09:40:00,
2013-06-26 05:45:00,67.4,66.5,29.70,West,265,0.0,0.0,97,0.00,,,0.00,Wunderground v.1.15,2013-06-26 09:45:00,
2013-06-26 05:50:00,67.4,66.5,29.70,West,265,0.0,0.0,97,0.00,,,0.00,Wunderground v.1.15,2013-06-26 09:50:00,
2013-06-26 05:55:00,67.4,66.5,29.70,West,265,0.0,0.0,97,0.00,,,0.00,Wunderground v.1.15,2013-06-26 09:55:00,
2013-06-26 06:00:00,67.4,66.5,29.71,West,265,0.0,0.0,97,0.00,,,0.00,Wunderground v.1.15,2013-06-26 10:00:00,
2013-06-26 06:10:00,67.3,66.4,29.71,West,265,0.0,0.0,97,0.00,,,0.00,Wunderground v.1.15,2013-06-26 10:10:00,
2013-06-26 06:15:00,67.3,66.4,29.71,West,265,0.0,0.0,97,0.00,,,0.00,Wunderground v.1.15,2013-06-26 10:15:00,
2013-06-26 06:20:00,67.3,66.4,29.71,West,265,0.0,0.0,97,0.00,,,0.00,Wunderground v.1.15,2013-06-26 10:20:00,
2013-06-26 06:25:00,67.3,66.4,29.71,West,265,0.0,0.0,97,0.00,,,0.00,Wunderground v.1.15,2013-06-26 10:25:00,
2013-06-26 06:30:00,67.4,66.8,29.71,West,265,0.0,0.0,98,0.00,,,0.00,Wunderground v.1.15,2013-06-26 10:30:00,
2013-06-26 06:35:00,67.4,66.8,29.71,West,265,0.0,0.0,98,0.00,,,0.00,Wunderground v.1.15,2013-06-26 10:35:00,
2013-06-26 06:45:00,67.4,66.8,29.70,West,265,0.0,0.0,98,0.00,,,0.00,Wunderground v.1.15,2013-06-26 10:45:00,
2013-06-26 06:50:00,67.4,66.8,29.70,West,265,0.0,0.0,98,0.00,,,0.00,Wunderground v.1.15,2013-06-26 10:50:00,
2013-06-26 06:55:00,68.3,67.7,29.70,West,265,0.0,0.0,98,0.00,,,0.00,Wunderground v.1.15,2013-06-26 10:55:00,
2013-06-26 07:00:00,68.3,67.7,29.70,West,265,0.0,0.0,98,0.00,,,0.00,Wunderground v.1.15,2013-06-26 11:00:00,
2013-06-26 07:05:00,68.3,67.7,29.70,West,265,0.0,0.0,98,0.00,,,0.00,Wunderground v.1.15,2013-06-26 11:05:00,
2013-06-26 07:15:00,68.3,67.7,29.69,West,265,0.0,0.0,98,0.00,,,0.00,Wunderground v.1.15,2013-06-26 11:15:00,
2013-06-26 07:20:00,68.3,67.7,29.69,West,265,0.0,0.0,98,0.00,,,0.00,Wunderground v.1.15,2013-06-26 11:20:00,
2013-06-26 07:25:00,68.3,67.7,29.69,West,265,0.0,0.0,98,0.00,,,0.00,Wunderground v.1.15,2013-06-26 11:25:00,
2013-06-26 07:30:00,70.1,69.5,29.70,West,265,0.0,0.0,98,0.00,,,0.00,Wunderground v.1.15,2013-06-26 11:30:00,
2013-06-26 07:35:00,70.1,69.5,29.70,West,265,0.0,0.0,98,0.00,,,0.00,Wunderground v.1.15,2013-06-26 11:35:00,
2013-06-26 07:40:00,70.1,69.5,29.70,West,265,0.0,0.0,98,0.00,,,0.00,Wunderground v.1.15,2013-06-26 11:40:00,
2013-06-26 07:50:00,70.6,70.0,29.70,West,265,0.0,0.0,98,0.00,,,0.00,Wunderground v.1.15,2013-06-26 11:50:00,
2013-06-26 07:55:00,71.1,71.1,29.70,West,265,0.0,0.0,100,0.00,,,0.00,Wunderground v.1.15,2013-06-26 11:55:00,
2013-06-26 08:00:00,71.3,71.3,29.71,West,265,0.0,0.0,100,0.00,,,0.00,Wunderground v.1.15,2013-06-26 12:00:00,
2013-06-26 08:05:00,71.3,71.3,29.71,West,265,0.0,0.0,100,0.00,,,0.00,Wunderground v.1.15,2013-06-26 12:05:00,
2013-06-26 08:14:00,71.5,71.5,29.71,West,265,0.0,0.0,100,0.00,,,0.00,Wunderground v.1.15,2013-06-26 12:14:00,
2013-06-26 08:20:00,71.6,71.6,29.71,West,265,0.0,0.0,100,0.00,,,0.00,Wunderground v.1.15,2013-06-26 12:20:00,
2013-06-26 08:25:00,71.5,71.5,29.71,West,265,0.0,0.0,100,0.00,,,0.00,Wunderground v.1.15,2013-06-26 12:25:00,
2013-06-26 08:34:00,71.5,71.5,29.72,West,265,0.0,0.0,100,0.00,,,0.00,Wunderground v.1.15,2013-06-26 12:34:00,
2013-06-26 08:39:00,71.6,71.6,29.72,West,265,0.0,0.0,100,0.00,,,0.00,Wunderground v.1.15,2013-06-26 12:39:00,
2013-06-26 08:44:00,71.8,71.8,29.72,West,265,0.0,0.0,100,0.00,,,0.00,Wunderground v.1.15,2013-06-26 12:44:00,
2013-06-26 08:50:00,71.8,71.8,29.72,West,265,0.0,0.0,100,0.00,,,0.00,Wunderground v.1.15,2013-06-26 12:50:00,
2013-06-26 08:59:00,71.8,71.8,29.72,West,265,0.0,0.0,100,0.00,,,0.00,Wunderground v.1.15,2013-06-26 12:59:00,
2013-06-26 09:04:00,71.8,71.8,29.72,West,265,0.0,0.0,100,0.00,,,0.00,Wunderground v.1.15,2013-06-26 13:04:00,
2013-06-26 09:09:00,71.8,71.8,29.72,SW,226,0.0,0.0,100,0.00,,,0.00,Wunderground v.1.15,2013-06-26 13:09:00,
2013-06-26 09:14:00,71.8,71.8,29.72,SW,226,0.0,0.0,100,0.00,,,0.00,Wunderground v.1.15,2013-06-26 13:14:00,
2013-06-26 09:19:00,-999.9,-99.9,29.72,North,32767,-999.0,0.0,255,-99.99,,,0.00,Wunderground v.1.15,2013-06-26 13:19:00,
2013-06-26 09:25:00,-999.9,-99.9,29.72,North,32767,-999.0,0.0,255,-99.99,,,0.00,Wunderground v.1.15,2013-06-26 13:25:00,
2013-06-26 09:34:00,-999.9,-99.9,29.72,North,32767,-999.0,0.0,255,-99.99,,,0.00,Wunderground v.1.15,2013-06-26 13:34:00,
2013-06-26 09:39:00,-999.9,-99.9,29.72,North,32767,-999.0,0.0,255,-99.99,,,0.00,Wunderground v.1.15,2013-06-26 13:39:00,
2013-06-26 09:44:00,-999.9,-99.9,29.72,North,32767,-999.0,0.0,255,-99.99,,,0.00,Wunderground v.1.15,2013-06-26 13:44:00,
2013-06-26 09:49:00,-999.9,-99.9,29.72,North,32767,-999.0,0.0,255,-99.99,,,0.00,Wunderground v.1.15,2013-06-26 13:49:00,
2013-06-26 09:59:00,-999.9,-99.9,29.72,South,184,1.0,1.0,255,0.00,,,0.00,Wunderground v.1.15,2013-06-26 13:59:00,
2013-06-26 10:04:00,-999.9,-99.9,29.72,South,181,0.0,1.0,255,0.00,,,0.00,Wunderground v.1.15,2013-06-26 14:04:00,
2013-06-26 10:09:00,-999.9,-99.9,29.72,South,179,0.0,0.0,255,0.00,,,0.00,Wunderground v.1.15,2013-06-26 14:09:00,
2013-06-26 10:14:00,-999.9,-99.9,29.73,South,179,0.0,0.0,255,0.00,,,0.00,Wunderground v.1.15,2013-06-26 14:14:00,
2013-06-26 10:19:00,-999.9,-99.9,29.73,South,179,0.0,0.0,255,0.00,,,0.00,Wunderground v.1.15,2013-06-26 14:19:00,
2013-06-26 10:24:00,-999.9,-99.9,29.73,North,32767,-999.0,0.0,255,-99.99,,,0.00,Wunderground v.1.15,2013-06-26 14:24:00,
2013-06-26 10:34:00,-999.9,-99.9,29.73,North,32767,-999.0,0.0,255,-99.99,,,0.00,Wunderground v.1.15,2013-06-26 14:34:00,
2013-06-26 10:39:00,-999.9,-99.9,29.73,South,174,0.0,0.0,255,0.00,,,0.00,Wunderground v.1.15,2013-06-26 14:39:00,
2013-06-26 10:44:00,-999.9,-99.9,29.73,South,174,0.0,0.0,255,0.00,,,0.00,Wunderground v.1.15,2013-06-26 14:44:00,
2013-06-26 10:49:00,77.0,-99.9,29.73,SSE,157,0.0,0.0,255,0.00,,,0.00,Wunderground v.1.15,2013-06-26 14:49:00,
2013-06-26 10:55:00,77.0,-99.9,29.73,SSE,157,0.0,0.0,255,0.00,,,0.00,Wunderground v.1.15,2013-06-26 14:55:00,
2013-06-26 11:04:00,-999.9,-99.9,29.73,North,32767,-999.0,0.0,255,-99.99,,,0.00,Wunderground v.1.15,2013-06-26 15:04:00,
2013-06-26 11:10:00,-999.9,-99.9,29.73,North,32767,-999.0,0.0,255,-99.99,,,0.00,Wunderground v.1.15,2013-06-26 15:10:00,
2013-06-26 11:15:00,-999.9,-99.9,29.73,North,32767,-999.0,0.0,255,-99.99,,,0.00,Wunderground v.1.15,2013-06-26 15:15:00,
2013-06-26 11:20:00,-999.9,-99.9,29.73,North,32767,-999.0,0.0,255,-99.99,,,0.00,Wunderground v.1.15,2013-06-26 15:20:00,
2013-06-26 11:25:00,-999.9,-99.9,29.73,North,32767,-999.0,0.0,255,-99.99,,,0.00,Wunderground v.1.15,2013-06-26 15:25:00,
2013-06-26 11:30:00,-999.9,-99.9,29.74,North,32767,-999.0,0.0,255,-99.99,,,0.00,Wunderground v.1.15,2013-06-26 15:30:00,
2013-06-26 11:40:00,-999.9,-99.9,29.74,North,32767,-999.0,0.0,255,-99.99,,,0.00,Wunderground v.1.15,2013-06-26 15:40:00,
2013-06-26 11:45:00,-999.9,-99.9,29.74,North,32767,-999.0,0.0,255,-99.99,,,0.00,Wunderground v.1.15,2013-06-26 15:45:00,
2013-06-26 11:50:00,-999.9,-99.9,29.74,North,32767,-999.0,0.0,255,-99.99,,,0.00,Wunderground v.1.15,2013-06-26 15:50:00,
2013-06-26 11:55:00,-999.9,-99.9,29.74,North,32767,-999.0,0.0,255,-99.99,,,0.00,Wunderground v.1.15,2013-06-26 15:55:00,
2013-06-26 12:00:00,-999.9,-99.9,29.74,North,32767,-999.0,0.0,255,-99.99,,,0.00,Wunderground v.1.15,2013-06-26 16:00:00,
2013-06-26 12:10:00,-999.9,-99.9,29.74,North,32767,-999.0,0.0,255,-99.99,,,0.00,Wunderground v.1.15,2013-06-26 16:10:00,
2013-06-26 12:15:00,-999.9,-99.9,29.74,North,32767,-999.0,0.0,255,-99.99,,,0.00,Wunderground v.1.15,2013-06-26 16:15:00,
2013-06-26 12:24:00,-999.9,-99.9,29.74,NE,35,0.0,0.0,255,0.00,,,0.00,Wunderground v.1.15,2013-06-26 16:24:00,
2013-06-26 12:29:00,-999.9,-99.9,29.73,NE,35,0.0,0.0,255,0.00,,,0.00,Wunderground v.1.15,2013-06-26 16:29:00,
2013-06-26 12:34:00,-999.9,-99.9,29.73,North,32767,-999.0,0.0,255,-99.99,,,0.00,Wunderground v.1.15,2013-06-26 16:34:00,
2013-06-26 12:40:00,-999.9,-99.9,29.73,North,32767,-999.0,0.0,255,-99.99,,,0.00,Wunderground v.1.15,2013-06-26 16:40:00,
2013-06-26 12:49:00,-999.9,-99.9,29.73,North,32767,-999.0,0.0,255,-99.99,,,0.00,Wunderground v.1.15,2013-06-26 16:49:00,
2013-06-26 12:54:00,-999.9,-99.9,29.73,North,32767,-999.0,0.0,255,-99.99,,,0.00,Wunderground v.1.15,2013-06-26 16:54:00,
2013-06-26 12:59:00,-999.9,-99.9,29.73,North,32767,-999.0,0.0,255,-99.99,,,0.00,Wunderground v.1.15,2013-06-26 16:59:00,
2013-06-26 13:04:00,-999.9,-99.9,29.73,North,32767,-999.0,0.0,255,-99.99,,,0.00,Wunderground v.1.15,2013-06-26 17:04:00,
2013-06-26 13:09:00,-999.9,-99.9,29.73,North,32767,-999.0,0.0,255,-99.99,,,0.00,Wunderground v.1.15,2013-06-26 17:09:00,
2013-06-26 13:19:00,-999.9,-99.9,29.74,North,32767,-999.0,0.0,255,-99.99,,,0.00,Wunderground v.1.15,2013-06-26 17:19:00,
2013-06-26 13:24:00,-999.9,-99.9,29.74,North,32767,-999.0,0.0,255,-99.99,,,0.00,Wunderground v.1.15,2013-06-26 17:24:00,
2013-06-26 13:30:00,-999.9,-99.9,29.73,North,32767,-999.0,0.0,255,-99.99,,,0.00,Wunderground v.1.15,2013-06-26 17:30:00,
2013-06-26 13:35:00,-999.9,-99.9,29.73,North,32767,-999.0,0.0,255,-99.99,,,0.00,Wunderground v.1.15,2013-06-26 17:35:00,
2013-06-26 13:40:00,-999.9,-99.9,29.73,North,32767,-999.0,0.0,255,-99.99,,,0.00,Wunderground v.1.15,2013-06-26 17:40:00,
2013-06-26 13:49:00,-999.9,-99.9,29.73,North,32767,-999.0,0.0,255,-99.99,,,0.00,Wunderground v.1.15,2013-06-26 17:49:00,
2013-06-26 13:55:00,-999.9,-99.9,29.73,North,32767,-999.0,0.0,255,-99.99,,,0.00,Wunderground v.1.15,2013-06-26 17:55:00,
2013-06-26 14:00:00,-999.9,-99.9,29.74,North,32767,-999.0,0.0,255,-99.99,,,0.00,Wunderground v.1.15,2013-06-26 18:00:00,
2013-06-26 14:05:00,-999.9,-99.9,29.74,North,32767,-999.0,0.0,255,-99.99,,,0.00,Wunderground v.1.15,2013-06-26 18:05:00,
2013-06-26 14:10:00,-999.9,-99.9,29.74,North,32767,-999.0,0.0,255,-99.99,,,0.00,Wunderground v.1.15,2013-06-26 18:10:00,
2013-06-26 14:15:00,-999.9,-99.9,29.73,North,32767,-999.0,0.0,255,-99.99,,,0.00,Wunderground v.1.15,2013-06-26 18:15:00,
2013-06-26 14:25:00,-999.9,-99.9,29.73,North,32767,-999.0,0.0,255,-99.99,,,0.00,Wunderground v.1.15,2013-06-26 18:25:00,
2013-06-26 14:30:00,-999.9,-99.9,29.74,North,32767,-999.0,0.0,255,-99.99,,,0.00,Wunderground v.1.15,2013-06-26 18:30:00,
2013-06-26 14:35:00,-999.9,-99.9,29.74,North,32767,-999.0,0.0,255,-99.99,,,0.00,Wunderground v.1.15,2013-06-26 18:35:00,
2013-06-26 14:40:00,-999.9,-99.9,29.74,North,32767,-999.0,0.0,255,-99.99,,,0.00,Wunderground v.1.15,2013-06-26 18:40:00,
2013-06-26 14:45:00,-999.9,-99.9,29.74,North,32767,-999.0,0.0,255,-99.99,,,0.00,Wunderground v.1.15,2013-06-26 18:45:00,
2013-06-26 14:55:00,-999.9,-99.9,29.74,North,32767,-999.0,0.0,255,-99.99,,,0.00,Wunderground v.1.15,2013-06-26 18:55:00,
2013-06-26 15:00:00,-999.9,-99.9,29.74,North,32767,-999.0,0.0,255,-99.99,,,0.00,Wunderground v.1.15,2013-06-26 19:00:00,
2013-06-26 15:05:00,-999.9,-99.9,29.74,North,32767,-999.0,0.0,255,-99.99,,,0.00,Wunderground v.1.15,2013-06-26 19:05:00,
2013-06-26 15:14:00,-999.9,-99.9,29.73,North,32767,-999.0,0.0,255,-99.99,,,0.00,Wunderground v.1.15,2013-06-26 19:14:00,
2013-06-26 15:19:00,-999.9,-99.9,29.73,North,32767,-999.0,0.0,255,-99.99,,,0.00,Wunderground v.1.15,2013-06-26 19:19:00,
2013-06-26 15:29:00,-999.9,-99.9,29.73,NE,52,0.0,0.0,255,0.00,,,0.00,Wunderground v.1.15,2013-06-26 19:29:00,
2013-06-26 15:34:00,-999.9,-99.9,29.73,NE,52,0.0,0.0,255,0.00,,,0.00,Wunderground v.1.15,2013-06-26 19:34:00,
2013-06-26 15:39:00,73.2,-99.9,29.73,NE,52,0.0,0.0,255,0.00,,,0.00,Wunderground v.1.15,2013-06-26 19:39:00,
2013-06-26 15:44:00,73.2,-99.9,29.73,NE,52,0.0,0.0,255,0.00,,,0.00,Wunderground v.1.15,2013-06-26 19:44:00,
2013-06-26 15:49:00,73.2,-99.9,29.73,NE,52,0.0,0.0,255,0.00,,,0.00,Wunderground v.1.15,2013-06-26 19:49:00,
2013-06-26 15:55:00,73.0,71.5,29.73,NE,52,0.0,0.0,95,0.00,,,0.00,Wunderground v.1.15,2013-06-26 19:55:00,
2013-06-26 16:04:00,73.0,71.5,29.73,NE,52,0.0,0.0,95,0.00,,,0.00,Wunderground v.1.15,2013-06-26 20:04:00,
2013-06-26 16:09:00,73.0,71.5,29.73,NE,52,0.0,0.0,95,0.00,,,0.00,Wunderground v.1.15,2013-06-26 20:09:00,
2013-06-26 16:14:00,-999.9,-99.9,29.74,North,32767,-999.0,0.0,255,-99.99,,,0.00,Wunderground v.1.15,2013-06-26 20:14:00,
2013-06-26 16:19:00,-999.9,-99.9,29.74,North,32767,-999.0,0.0,255,-99.99,,,0.00,Wunderground v.1.15,2013-06-26 20:19:00,
2013-06-26 16:25:00,-999.9,-99.9,29.74,North,32767,-999.0,0.0,255,-99.99,,,0.00,Wunderground v.1.15,2013-06-26 20:25:00,
2013-06-26 16:34:00,-999.9,-99.9,29.74,North,32767,-999.0,0.0,255,-99.99,,,0.00,Wunderground v.1.15,2013-06-26 20:34:00,
2013-06-26 16:40:00,-999.9,-99.9,29.74,North,32767,-999.0,0.0,255,-99.99,,,0.00,Wunderground v.1.15,2013-06-26 20:40:00,
2013-06-26 16:45:00,-999.9,-99.9,29.74,North,32767,-999.0,0.0,255,-99.99,,,0.00,Wunderground v.1.15,2013-06-26 20:45:00,
2013-06-26 16:50:00,-999.9,-99.9,29.74,North,32767,-999.0,0.0,255,-99.99,,,0.00,Wunderground v.1.15,2013-06-26 20:50:00,
2013-06-26 16:55:00,-999.9,-99.9,29.74,North,32767,-999.0,0.0,255,-99.99,,,0.00,Wunderground v.1.15,2013-06-26 20:55:00,
2013-06-26 17:00:00,-999.9,-99.9,29.75,North,32767,-999.0,0.0,255,-99.99,,,0.00,Wunderground v.1.15,2013-06-26 21:00:00,
2013-06-26 17:10:00,-999.9,-99.9,29.75,North,32767,-999.0,0.0,255,-99.99,,,0.00,Wunderground v.1.15,2013-06-26 21:10:00,
2013-06-26 17:15:00,-999.9,-99.9,29.75,North,32767,-999.0,0.0,255,-99.99,,,0.00,Wunderground v.1.15,2013-06-26 21:15:00,
2013-06-26 17:20:00,-999.9,-99.9,29.75,North,32767,-999.0,0.0,255,-99.99,,,0.00,Wunderground v.1.15,2013-06-26 21:20:00,
2013-06-26 17:25:00,-999.9,-99.9,29.75,North,32767,-999.0,0.0,255,-99.99,,,0.00,Wunderground v.1.15,2013-06-26 21:25:00,
2013-06-26 17:30:00,-999.9,-99.9,29.75,North,32767,-999.0,0.0,255,-99.99,,,0.00,Wunderground v.1.15,2013-06-26 21:30:00,
2013-06-26 17:40:00,-999.9,-99.9,29.75,North,32767,-999.0,0.0,255,-99.99,,,0.00,Wunderground v.1.15,2013-06-26 21:40:00,
2013-06-26 17:45:00,-999.9,-99.9,29.74,North,32767,-999.0,0.0,255,-99.99,,,0.00,Wunderground v.1.15,2013-06-26 21:45:00,
2013-06-26 17:54:00,-999.9,-99.9,29.74,North,32767,-999.0,0.0,255,-99.99,,,0.00,Wunderground v.1.15,2013-06-26 21:54:00,
2013-06-26 17:59:00,-999.9,-99.9,29.74,North,32767,-999.0,0.0,255,-99.99,,,0.00,Wunderground v.1.15,2013-06-26 21:59:00,
2013-06-26 18:04:00,-999.9,-99.9,29.74,North,32767,-999.0,0.0,255,-99.99,,,0.00,Wunderground v.1.15,2013-06-26 22:04:00,
2013-06-26 18:14:00,-999.9,-99.9,29.74,North,32767,-999.0,0.0,255,-99.99,,,0.00,Wunderground v.1.15,2013-06-26 22:14:00,
2013-06-26 18:19:00,-999.9,-99.9,29.74,North,32767,-999.0,0.0,255,-99.99,,,0.00,Wunderground v.1.15,2013-06-26 22:19:00,
2013-06-26 18:24:00,-999.9,-99.9,29.74,North,32767,-999.0,0.0,255,-99.99,,,0.00,Wunderground v.1.15,2013-06-26 22:24:00,
2013-06-26 18:29:00,-999.9,-99.9,29.74,North,32767,-999.0,0.0,255,-99.99,,,0.00,Wunderground v.1.15,2013-06-26 22:29:00,
2013-06-26 18:34:00,-999.9,-99.9,29.74,North,32767,-999.0,0.0,255,-99.99,,,0.00,Wunderground v.1.15,2013-06-26 22:34:00,
2013-06-26 18:40:00,-999.9,-99.9,29.74,North,32767,-999.0,0.0,255,-99.99,,,0.00,Wunderground v.1.15,2013-06-26 22:40:00,
2013-06-26 18:49:00,-999.9,-99.9,29.74,North,32767,-999.0,0.0,255,-99.99,,,0.00,Wunderground v.1.15,2013-06-26 22:49:00,
2013-06-26 18:54:00,-999.9,-99.9,29.74,North,32767,-999.0,0.0,255,-99.99,,,0.00,Wunderground v.1.15,2013-06-26 22:54:00,
2013-06-26 19:00:00,-999.9,-99.9,29.75,North,32767,-999.0,0.0,255,-99.99,,,0.00,Wunderground v.1.15,2013-06-26 23:00:00,
2013-06-26 19:05:00,-999.9,-99.9,29.75,North,32767,-999.0,0.0,255,-99.99,,,0.00,Wunderground v.1.15,2013-06-26 23:05:00,
2013-06-26 19:10:00,-999.9,-99.9,29.75,North,32767,-999.0,0.0,255,-99.99,,,0.00,Wunderground v.1.15,2013-06-26 23:10:00,
2013-06-26 19:20:00,-999.9,-99.9,29.75,North,32767,-999.0,0.0,255,-99.99,,,0.00,Wunderground v.1.15,2013-06-26 23:20:00,
2013-06-26 19:25:00,-999.9,-99.9,29.75,NE,52,0.0,0.0,255,0.00,,,0.00,Wunderground v.1.15,2013-06-26 23:25:00,
2013-06-26 19:30:00,-999.9,-99.9,29.77,NE,52,0.0,0.0,255,0.00,,,0.00,Wunderground v.1.15,2013-06-26 23:30:00,
2013-06-26 19:35:00,-999.9,-99.9,29.77,North,32767,-999.0,0.0,255,-99.99,,,0.00,Wunderground v.1.15,2013-06-26 23:35:00,
2013-06-26 19:40:00,-999.9,-99.9,29.77,North,32767,-999.0,0.0,255,-99.99,,,0.00,Wunderground v.1.15,2013-06-26 23:40:00,
2013-06-26 19:45:00,-999.9,-99.9,29.78,North,32767,-999.0,0.0,255,-99.99,,,0.00,Wunderground v.1.15,2013-06-26 23:45:00,
2013-06-26 19:55:00,-999.9,-99.9,29.78,North,32767,-999.0,0.0,255,-99.99,,,0.00,Wunderground v.1.15,2013-06-26 23:55:00,
2013-06-26 20:04:00,-999.9,-99.9,29.79,North,32767,-999.0,0.0,255,-99.99,,,0.00,Wunderground v.1.15,2013-06-27 00:04:00,
2013-06-26 20:09:00,-999.9,-99.9,29.79,North,32767,-999.0,0.0,255,-99.99,,,0.00,Wunderground v.1.15,2013-06-27 00:09:00,
2013-06-26 20:14:00,-999.9,-99.9,29.79,North,32767,-999.0,0.0,255,-99.99,,,0.00,Wunderground v.1.15,2013-06-27 00:14:00,
2013-06-26 20:19:00,-999.9,-99.9,29.79,North,32767,-999.0,0.0,255,-99.99,,,0.00,Wunderground v.1.15,2013-06-27 00:19:00,
2013-06-26 20:29:00,-999.9,-99.9,29.79,North,32767,-999.0,0.0,255,-99.99,,,0.00,Wunderground v.1.15,2013-06-27 00:29:00,
2013-06-26 20:34:00,-999.9,-99.9,29.79,North,32767,-999.0,0.0,255,-99.99,,,0.00,Wunderground v.1.15,2013-06-27 00:34:00,
2013-06-26 20:40:00,-999.9,-99.9,29.79,North,32767,-999.0,0.0,255,-99.99,,,0.00,Wunderground v.1.15,2013-06-27 00:40:00,
2013-06-26 20:45:00,-999.9,-99.9,29.79,North,32767,-999.0,0.0,255,-99.99,,,0.00,Wunderground v.1.15,2013-06-27 00:45:00,
2013-06-26 20:50:00,-999.9,-99.9,29.79,North,32767,-999.0,0.0,255,-99.99,,,0.00,Wunderground v.1.15,2013-06-27 00:50:00,
2013-06-26 21:00:00,-999.9,-99.9,29.80,North,32767,-999.0,0.0,255,-99.99,,,0.00,Wunderground v.1.15,2013-06-27 01:00:00,
2013-06-26 21:05:00,-999.9,-99.9,29.80,North,32767,-999.0,0.0,255,-99.99,,,0.00,Wunderground v.1.15,2013-06-27 01:05:00,
2013-06-26 21:10:00,-999.9,-99.9,29.80,North,32767,-999.0,0.0,255,-99.99,,,0.00,Wunderground v.1.15,2013-06-27 01:10:00,
2013-06-26 21:15:00,-999.9,-99.9,29.81,North,32767,-999.0,0.0,255,-99.99,,,0.00,Wunderground v.1.15,2013-06-27 01:15:00,
2013-06-26 21:20:00,-999.9,-99.9,29.81,North,32767,-999.0,0.0,255,-99.99,,,0.00,Wunderground v.1.15,2013-06-27 01:20:00,
2013-06-26 21:25:00,-999.9,-99.9,29.81,North,32767,-999.0,0.0,255,-99.99,,,0.00,Wunderground v.1.15,2013-06-27 01:25:00,
2013-06-26 21:35:00,65.6,-99.9,29.82,West,260,0.0,0.0,255,-99.99,,,0.00,Wunderground v.1.15,2013-06-27 01:35:00,
2013-06-26 21:40:00,65.6,-99.9,29.82,ENE,64,0.0,0.0,255,0.00,,,0.00,Wunderground v.1.15,2013-06-27 01:40:00,
2013-06-26 21:45:00,65.6,-99.9,29.82,ENE,64,0.0,0.0,255,0.00,,,0.00,Wunderground v.1.15,2013-06-27 01:45:00,
2013-06-26 21:50:00,-999.9,-99.9,29.82,North,32767,-999.0,0.0,255,-99.99,,,0.00,Wunderground v.1.15,2013-06-27 01:50:00,
2013-06-26 21:59:00,-999.9,-99.9,29.82,North,32767,-999.0,0.0,255,-99.99,,,0.00,Wunderground v.1.15,2013-06-27 01:59:00,
2013-06-26 22:05:00,-999.9,-99.9,29.82,North,357,0.0,0.0,255,0.00,,,0.00,Wunderground v.1.15,2013-06-27 02:05:00,
2013-06-26 22:10:00,-999.9,-99.9,29.82,NNW,344,0.0,0.0,255,0.00,,,0.00,Wunderground v.1.15,2013-06-27 02:10:00,
2013-06-26 22:15:00,-999.9,-99.9,29.82,WSW,246,0.0,0.0,255,0.00,,,0.00,Wunderground v.1.15,2013-06-27 02:15:00,
2013-06-26 22:20:00,-999.9,-99.9,29.82,WSW,246,0.0,0.0,255,0.00,,,0.00,Wunderground v.1.15,2013-06-27 02:20:00,
2013-06-26 22:25:00,-999.9,-99.9,29.82,North,32767,-999.0,0.0,255,-99.99,,,0.00,Wunderground v.1.15,2013-06-27 02:25:00,
2013-06-26 22:35:00,-999.9,-99.9,29.82,North,32767,-999.0,0.0,255,-99.99,,,0.00,Wunderground v.1.15,2013-06-27 02:35:00,
2013-06-26 22:40:00,-999.9,-99.9,29.82,North,32767,-999.0,0.0,255,-99.99,,,0.00,Wunderground v.1.15,2013-06-27 02:40:00,
2013-06-26 22:45:00,-999.9,-99.9,29.83,North,32767,-999.0,0.0,255,-99.99,,,0.00,Wunderground v.1.15,2013-06-27 02:45:00,
2013-06-26 22:54:00,-999.9,-99.9,29.83,North,32767,-999.0,0.0,255,-99.99,,,0.00,Wunderground v.1.15,2013-06-27 02:54:00,
2013-06-26 22:59:00,-999.9,-99.9,29.84,North,32767,-999.0,0.0,255,-99.99,,,0.00,Wunderground v.1.15,2013-06-27 02:59:00,
2013-06-26 23:04:00,-999.9,-99.9,29.84,North,32767,-999.0,0.0,255,-99.99,,,0.00,Wunderground v.1.15,2013-06-27 03:04:00,
2013-06-26 23:14:00,-999.9,-99.9,29.83,North,32767,-999.0,0.0,255,-99.99,,,0.00,Wunderground v.1.15,2013-06-27 03:14:00,
2013-06-26 23:19:00,-999.9,-99.9,29.83,North,32767,-999.0,0.0,255,-99.99,,,0.00,Wunderground v.1.15,2013-06-27 03:19:00,
2013-06-26 23:24:00,-999.9,-99.9,29.83,North,32767,-999.0,0.0,255,-99.99,,,0.00,Wunderground v.1.15,2013-06-27 03:24:00,
2013-06-26 23:29:00,-999.9,-99.9,29.82,North,32767,-999.0,0.0,255,-99.99,,,0.00,Wunderground v.1.15,2013-06-27 03:29:00,
2013-06-26 23:34:00,-999.9,-99.9,29.82,North,32767,-999.0,0.0,255,-99.99,,,0.00,Wunderground v.1.15,2013-06-27 03:34:00,
2013-06-26 23:44:00,-999.9,-99.9,29.82,North,32767,-999.0,0.0,255,-99.99,,,0.00,Wunderground v.1.15,2013-06-27 03:44:00,
2013-06-26 23:49:00,-999.9,-99.9,29.82,North,32767,-999.0,0.0,255,-99.99,,,0.00,Wunderground v.1.15,2013-06-27 03:49:00,
2013-06-26 23:54:00,-999.9,-99.9,29.82,North,32767,-999.0,0.0,255,-99.99,,,0.00,Wunderground v.1.15,2013-06-27 03:54:00,